地図

経路データ

SID SEASON NUMBER BASIN SUBBASIN NAME ISO_TIME NATURE LAT LON WMO_WIND WMO_PRES WMO_AGENCY TRACK_TYPE DIST2LAND LANDFALL IFLAG USA_AGENCY USA_ATCF_ID USA_LAT USA_LON USA_RECORD USA_STATUS USA_WIND USA_PRES USA_SSHS USA_R34_NE USA_R34_SE USA_R34_SW USA_R34_NW USA_R50_NE USA_R50_SE USA_R50_SW USA_R50_NW USA_R64_NE USA_R64_SE USA_R64_SW USA_R64_NW USA_POCI USA_ROCI USA_RMW USA_EYE TOKYO_LAT TOKYO_LON TOKYO_GRADE TOKYO_WIND TOKYO_PRES TOKYO_R50_DIR TOKYO_R50_LONG TOKYO_R50_SHORT TOKYO_R30_DIR TOKYO_R30_LONG TOKYO_R30_SHORT TOKYO_LAND CMA_LAT CMA_LON CMA_CAT CMA_WIND CMA_PRES HKO_LAT HKO_LON HKO_CAT HKO_WIND HKO_PRES NEWDELHI_LAT NEWDELHI_LON NEWDELHI_GRADE NEWDELHI_WIND NEWDELHI_PRES NEWDELHI_CI NEWDELHI_DP NEWDELHI_POCI REUNION_LAT REUNION_LON REUNION_TYPE REUNION_WIND REUNION_PRES REUNION_TNUM REUNION_CI REUNION_RMW REUNION_R34_NE REUNION_R34_SE REUNION_R34_SW REUNION_R34_NW REUNION_R50_NE REUNION_R50_SE REUNION_R50_SW REUNION_R50_NW REUNION_R64_NE REUNION_R64_SE REUNION_R64_SW REUNION_R64_NW BOM_LAT BOM_LON BOM_TYPE BOM_WIND BOM_PRES BOM_TNUM BOM_CI BOM_RMW BOM_R34_NE BOM_R34_SE BOM_R34_SW BOM_R34_NW BOM_R50_NE BOM_R50_SE BOM_R50_SW BOM_R50_NW BOM_R64_NE BOM_R64_SE BOM_R64_SW BOM_R64_NW BOM_ROCI BOM_POCI BOM_EYE BOM_POS_METHOD BOM_PRES_METHOD NADI_LAT NADI_LON NADI_CAT NADI_WIND NADI_PRES WELLINGTON_LAT WELLINGTON_LON WELLINGTON_WIND WELLINGTON_PRES DS824_LAT DS824_LON DS824_STAGE DS824_WIND DS824_PRES TD9636_LAT TD9636_LON TD9636_STAGE TD9636_WIND TD9636_PRES TD9635_LAT TD9635_LON TD9635_WIND TD9635_PRES TD9635_ROCI NEUMANN_LAT NEUMANN_LON NEUMANN_CLASS NEUMANN_WIND NEUMANN_PRES MLC_LAT MLC_LON MLC_CLASS MLC_WIND MLC_PRES USA_GUST BOM_GUST BOM_GUST_PER REUNION_GUST REUNION_GUST_PER USA_SEAHGT USA_SEARAD_NE USA_SEARAD_SE USA_SEARAD_SW USA_SEARAD_NW STORM_SPEED STORM_DIR
1950058S18113 1950 15 SI WA NOT_NAMED 1950-02-26 23:00:00 NR -17.9000 113.000 main 459 459 __________O___ -1 -17.9000 113.000 7 10 268
1950058S18113 1950 15 SI WA NOT_NAMED 1950-02-27 00:00:00 TS -17.9063 112.822 main 464 464 O________OP___ jtwc_sh SH151950 -17.9000 112.800 -1 -17.9000 112.800 TC -17.9126 112.843 7 9 265
1950058S18113 1950 15 SI WA NOT_NAMED 1950-02-27 03:00:00 TS -17.9550 112.366 main 467 467 P________PP___ SH151950 -17.9602 112.360 -1 -17.9602 112.360 TC -17.9481 112.373 7 9 264
1950058S18113 1950 15 SI WA NOT_NAMED 1950-02-27 06:00:00 TS -17.9908 111.900 main 488 488 O________OP___ jtwc_sh SH151950 -18.0000 111.900 -1 -18.0000 111.900 TC -17.9771 111.900 7 9 267
1950058S18113 1950 15 SI WA NOT_NAMED 1950-02-27 09:00:00 TS -18.0035 111.412 main 513 513 P________PP___ SH151950 -18.0074 111.407 -1 -18.0074 111.407 TC -17.9956 111.422 7 9 269
1950058S18113 1950 15 SI WA NOT_NAMED 1950-02-27 11:00:00 TS -18.0017 111.080 main 531 531 P________PO___ SH151950 -18.0026 111.069 -1 -18.0026 111.069 TC -18.0000 111.100 7 10 270
1950058S18113 1950 15 SI WA NOT_NAMED 1950-02-27 12:00:00 TS -17.9998 110.913 main 543 543 O________OP___ jtwc_sh SH151950 -18.0000 110.900 -1 -18.0000 110.900 TC -17.9995 110.938 7 9 270
1950058S18113 1950 15 SI WA NOT_NAMED 1950-02-27 15:00:00 TS -17.9970 110.415 main 575 575 P________PP___ SH151950 -17.9999 110.400 -1 -17.9999 110.400 TC -17.9912 110.446 7 9 270
1950058S18113 1950 15 SI WA NOT_NAMED 1950-02-27 18:00:00 TS -17.9941 109.916 main 611 611 O________OP___ jtwc_sh SH151950 -18.0000 109.900 -1 -18.0000 109.900 TC -17.9822 109.947 7 10 270
1950058S18113 1950 15 SI WA NOT_NAMED 1950-02-27 21:00:00 TS -17.9900 109.414 main 649 649 P________PP___ SH151950 -17.9924 109.400 -1 -17.9924 109.400 TC -17.9852 109.441 7 10 270
1950058S18113 1950 15 SI WA NOT_NAMED 1950-02-27 23:00:00 TS -17.9961 109.078 main 672 672 P________PO___ SH151950 -17.9942 109.067 -1 -17.9942 109.067 TC -18.0000 109.100 7 10 268
1950058S18113 1950 15 SI WA NOT_NAMED 1950-02-28 00:00:00 TS -18.0045 108.909 main 688 688 O________OP___ jtwc_sh SH151950 -18.0000 108.900 -1 -18.0000 108.900 TC -18.0136 108.927 7 10 265
1950058S18113 1950 15 SI WA NOT_NAMED 1950-02-28 03:00:00 TS -18.0467 108.406 main 729 729 P________PP___ SH151950 -18.0348 108.407 -1 -18.0348 108.407 TC -18.0706 108.403 7 10 263
1950058S18113 1950 15 SI WA NOT_NAMED 1950-02-28 06:00:00 TS -18.1156 107.891 main 765 765 O________OP___ jtwc_sh SH151950 -18.1000 107.900 -1 -18.1000 107.900 TC -18.1469 107.874 7 10 261
1950058S18113 1950 15 SI WA NOT_NAMED 1950-02-28 09:00:00 TS -18.2071 107.349 main 812 812 P________PP___ SH151950 -18.1925 107.350 -1 -18.1925 107.350 TC -18.2362 107.347 7 10 259
1950058S18113 1950 15 SI WA NOT_NAMED 1950-02-28 11:00:00 TS -18.2760 106.987 main 834 834 P________PO___ SH151950 -18.2640 106.980 -1 -18.2640 106.980 TC -18.3000 107.000 7 10 259
1950058S18113 1950 15 SI WA NOT_NAMED 1950-02-28 12:00:00 TS -18.3094 106.815 main 852 852 O________OP___ jtwc_sh SH151950 -18.3000 106.800 -1 -18.3000 106.800 TC -18.3282 106.846 7 10 258
1950058S18113 1950 15 SI WA NOT_NAMED 1950-02-28 15:00:00 TS -18.4059 106.327 main 893 893 P________PP___ SH151950 -18.3998 106.292 -1 -18.3998 106.292 TC -18.4179 106.395 7 9 258
1950058S18113 1950 15 SI WA NOT_NAMED 1950-02-28 18:00:00 TS -18.5054 105.843 main 932 932 O________OP___ jtwc_sh SH151950 -18.5000 105.800 -1 -18.5000 105.800 TC -18.5162 105.929 7 9 258
1950058S18113 1950 15 SI WA NOT_NAMED 1950-02-28 21:00:00 TS -18.6025 105.360 main 963 963 P________PP___ SH151950 -18.5920 105.337 -1 -18.5920 105.337 TC -18.6235 105.404 7 10 258
1950058S18113 1950 15 SI WA NOT_NAMED 1950-02-28 23:00:00 TS -18.6738 104.997 main 995 995 P________PO___ SH151950 -18.6607 104.995 -1 -18.6607 104.995 TC -18.7000 105.000 7 11 259
1950058S18113 1950 15 SI WA NOT_NAMED 1950-03-01 00:00:00 TS -18.7114 104.795 main 1013 1013 O________OP___ jtwc_sh SH151950 -18.7000 104.800 -1 -18.7000 104.800 TC -18.7342 104.785 7 13 258
1950058S18113 1950 15 SI WA NOT_NAMED 1950-03-01 03:00:00 TS -18.8467 104.104 main 1075 1070 P________PP___ SH151950 -18.8497 104.118 -1 -18.8497 104.118 TC -18.8407 104.077 7 15 259
1950058S18113 1950 15 SI WA NOT_NAMED 1950-03-01 06:00:00 TS -18.9862 103.290 main 1143 1143 O________OP___ jtwc_sh SH151950 -19.0000 103.300 -1 -19.0000 103.300 TC -18.9586 103.270 7 16 261
1950058S18113 1950 15 SI WA NOT_NAMED 1950-03-01 09:00:00 TS -19.0930 102.394 main 1227 1227 P________PP___ SH151950 -19.0919 102.409 -1 -19.0919 102.409 TC -19.0951 102.363 7 18 263
1950058S18113 1950 15 SI WA NOT_NAMED 1950-03-01 11:00:00 TS -19.1717 101.733 main 1292 1292 P________PO___ SH151950 -19.1575 101.750 -1 -19.1575 101.750 TC -19.2000 101.700 7 19 262
1950058S18113 1950 15 SI WA NOT_NAMED 1950-03-01 12:00:00 TS -19.2229 101.380 main 1322 1322 O________OP___ jtwc_sh SH151950 -19.2000 101.400 -1 -19.2000 101.400 TC -19.2573 101.351 7 21 260
1950058S18113 1950 15 SI WA NOT_NAMED 1950-03-01 15:00:00 TS -19.4122 100.262 main 1425 1425 P________PP___ SH151950 -19.3792 100.281 -1 -19.3792 100.281 TC -19.4453 100.243 7 22 259
1950058S18113 1950 15 SI WA NOT_NAMED 1950-03-01 18:00:00 TS -19.6298 99.0767 main 1540 1540 O________OP___ jtwc_sh SH151950 -19.6000 99.1000 -1 -19.6000 99.1000 TC -19.6497 99.0611 7 23 259
1950058S18113 1950 15 SI WA NOT_NAMED 1950-03-01 21:00:00 NR -19.8606 97.8322 main 1663 1663 __________P___ SH151950 -1 TC -19.8606 97.8322 7 24 259
1950058S18113 1950 15 SI WA NOT_NAMED 1950-03-01 23:00:00 NR -20.0000 97.0000 main 1722 __________O___ SH151950 -1 TC -20.0000 97.0000 7 24 260

IBTrACS Databaseについて

本データベースは、米国NOAAが公開する1842年以降の世界の熱帯低気圧のベストトラックデータアーカイブInternational Best Track Archive for Climate Stewardship (IBTrACS)を、ウェブで閲覧しやすい形式に変換したものです。

最終更新日:2021-10-08